createdAt,value
2017-11-10T00:00:10.827Z,25.08
2017-11-10T00:01:13.404Z,26.67
2017-11-10T00:02:16.106Z,25.85
2017-11-10T00:03:18.629Z,26.73
2017-11-10T00:04:22.061Z,27.48
2017-11-10T00:05:24.578Z,25.73
2017-11-10T00:06:28.021Z,26.62
2017-11-10T00:07:30.541Z,28.75
2017-11-10T00:08:33.067Z,28.35
2017-11-10T00:09:36.326Z,26.67
2017-11-10T00:10:39.003Z,26.83
2017-11-10T00:11:41.521Z,28.20
2017-11-10T00:12:44.051Z,27.48
2017-11-10T00:13:47.327Z,26.62
2017-11-10T00:14:49.990Z,27.37
2017-11-10T00:15:52.515Z,27.15
2017-11-10T00:16:55.014Z,27.35
2017-11-10T00:17:57.498Z,24.73
2017-11-10T00:19:00.983Z,26.17
2017-11-10T00:20:03.464Z,25.45
2017-11-10T00:21:06.013Z,24.95
2017-11-10T00:22:09.368Z,23.40
2017-11-10T00:23:11.994Z,24.37
2017-11-10T00:24:15.284Z,24.67
2017-11-10T00:25:18.549Z,23.87
2017-11-10T00:26:21.046Z,24.27
2017-11-10T00:27:23.669Z,25.02
2017-11-10T00:28:26.173Z,23.77
2017-11-10T00:29:29.977Z,25.67
2017-11-10T00:30:32.452Z,23.75
2017-11-10T00:31:35.225Z,23.85
2017-11-10T00:32:37.710Z,23.25
2017-11-10T00:33:40.180Z,23.10
2017-11-10T00:34:42.709Z,25.83
2017-11-10T00:35:45.232Z,24.33
2017-11-10T00:36:50.201Z,24.92
2017-11-10T00:37:52.698Z,25.20
2017-11-10T00:38:55.194Z,24.37
2017-11-10T00:39:58.658Z,24.10
2017-11-10T00:41:01.133Z,22.17
2017-11-10T00:42:05.193Z,24.85
2017-11-10T00:43:07.684Z,23.02
2017-11-10T00:44:10.267Z,23.12
2017-11-10T00:45:12.784Z,22.60
2017-11-10T00:46:15.289Z,23.25
2017-11-10T00:47:17.762Z,23.00
2017-11-10T00:48:21.853Z,23.30
2017-11-10T00:49:24.382Z,22.40
2017-11-10T00:50:26.906Z,21.60
2017-11-10T00:51:30.169Z,20.98
2017-11-10T00:52:33.157Z,20.45
2017-11-10T00:53:36.398Z,21.12
2017-11-10T00:54:39.097Z,20.33
2017-11-10T00:55:41.602Z,20.25
2017-11-10T00:56:45.064Z,21.33
2017-11-10T00:57:49.074Z,22.45
2017-11-10T00:58:51.654Z,21.55
2017-11-10T00:59:54.918Z,19.58
2017-11-10T01:00:57.597Z,22.17
2017-11-10T01:02:00.854Z,20.40
2017-11-10T01:03:03.527Z,20.12
2017-11-10T01:04:06.013Z,20.37
2017-11-10T01:05:09.479Z,22.15
2017-11-10T01:06:12.020Z,20.80
2017-11-10T01:07:14.578Z,20.55
2017-11-10T01:08:17.055Z,20.65
2017-11-10T01:09:19.538Z,21.83
2017-11-10T01:10:22.053Z,23.00
2017-11-10T01:11:25.494Z,21.62
2017-11-10T01:12:27.975Z,20.08
2017-11-10T01:13:30.536Z,20.25
2017-11-10T01:14:33.037Z,21.50
2017-11-10T01:15:36.492Z,22.42
2017-11-10T01:16:40.499Z,22.70
2017-11-10T01:17:43.967Z,23.12
2017-11-10T01:18:46.479Z,22.42
2017-11-10T01:19:49.921Z,23.15
2017-11-10T01:20:52.396Z,22.37
2017-11-10T01:21:56.488Z,23.70
2017-11-10T01:22:59.869Z,23.73
2017-11-10T01:24:02.689Z,23.50
2017-11-10T01:25:06.573Z,25.20
2017-11-10T01:26:10.230Z,25.73
2017-11-10T01:27:13.049Z,26.65
2017-11-10T01:28:16.485Z,24.55
2017-11-10T01:29:18.975Z,24.55
2017-11-10T01:30:21.586Z,25.17
2017-11-10T01:31:24.081Z,25.08
2017-11-10T01:32:26.562Z,25.23
2017-11-10T01:33:29.035Z,25.27
2017-11-10T01:34:33.125Z,25.45
2017-11-10T01:35:35.763Z,27.48
2017-11-10T01:36:38.485Z,25.17
2017-11-10T01:37:40.962Z,25.70
2017-11-10T01:38:44.402Z,25.85
2017-11-10T01:39:46.887Z,24.40
2017-11-10T01:40:50.255Z,26.23
2017-11-10T01:41:53.174Z,23.25
2017-11-10T01:42:55.849Z,25.70
2017-11-10T01:43:59.095Z,24.10
2017-11-10T01:45:01.677Z,25.20
2017-11-10T01:46:05.681Z,24.55
2017-11-10T01:47:09.176Z,22.52
2017-11-10T01:48:14.520Z,25.40
2017-11-10T01:49:19.644Z,25.23
2017-11-10T01:50:22.886Z,24.30
2017-11-10T01:51:25.384Z,24.83
2017-11-10T01:52:27.867Z,22.95
2017-11-10T01:53:31.334Z,24.27
2017-11-10T01:54:34.577Z,26.00
2017-11-10T01:55:37.286Z,26.15
2017-11-10T01:56:39.820Z,26.60
2017-11-10T01:57:42.347Z,24.63
2017-11-10T01:58:45.605Z,25.83
2017-11-10T01:59:48.275Z,26.62
2017-11-10T02:00:51.564Z,26.70
2017-11-10T02:01:54.823Z,26.40
2017-11-10T02:02:58.130Z,23.50
2017-11-10T02:04:01.400Z,23.17
2017-11-10T02:05:04.672Z,24.20
2017-11-10T02:06:07.483Z,24.05
2017-11-10T02:07:10.786Z,23.20
2017-11-10T02:08:13.317Z,24.95
2017-11-10T02:09:16.577Z,24.35
2017-11-10T02:10:19.896Z,23.48
2017-11-10T02:11:23.187Z,24.42
2017-11-10T02:12:26.458Z,24.65
2017-11-10T02:13:29.727Z,21.30
2017-11-10T02:14:32.371Z,23.10
2017-11-10T02:15:34.986Z,21.15
2017-11-10T02:16:38.334Z,21.02
2017-11-10T02:17:40.823Z,23.52
2017-11-10T02:18:44.319Z,22.48
2017-11-10T02:19:46.838Z,22.98
2017-11-10T02:20:50.419Z,22.98
2017-11-10T02:21:52.913Z,22.23
2017-11-10T02:22:56.256Z,21.75
2017-11-10T02:23:58.787Z,23.23
2017-11-10T02:25:01.355Z,22.48
2017-11-10T02:26:03.900Z,24.58
2017-11-10T02:27:06.579Z,22.13
2017-11-10T02:28:10.063Z,24.37
2017-11-10T02:29:14.484Z,25.40
2017-11-10T02:30:17.060Z,24.30
2017-11-10T02:31:20.032Z,24.12
2017-11-10T02:32:22.552Z,25.27
2017-11-10T02:33:25.047Z,25.40
2017-11-10T02:34:27.564Z,24.40
2017-11-10T02:35:30.080Z,25.52
2017-11-10T02:36:32.583Z,26.08
2017-11-10T02:37:36.036Z,24.63
2017-11-10T02:38:38.549Z,26.90
2017-11-10T02:39:41.074Z,28.52
2017-11-10T02:40:43.581Z,27.33
2017-11-10T02:41:46.911Z,29.85
2017-11-10T02:42:49.427Z,27.95
2017-11-10T02:43:52.160Z,29.30
2017-11-10T02:44:55.415Z,32.10
2017-11-10T02:45:58.005Z,29.80
2017-11-10T02:47:00.561Z,30.25
2017-11-10T02:48:04.021Z,31.75
2017-11-10T02:49:06.520Z,31.12
2017-11-10T02:50:09.008Z,32.55
2017-11-10T02:51:11.511Z,33.78
2017-11-10T02:52:14.239Z,33.17
2017-11-10T02:53:16.749Z,28.73
2017-11-10T02:54:19.354Z,31.08
2017-11-10T02:55:22.633Z,32.60
2017-11-10T02:56:25.401Z,33.13
2017-11-10T02:57:28.746Z,33.03
2017-11-10T02:58:31.267Z,32.53
2017-11-10T02:59:35.272Z,33.88
2017-11-10T03:00:37.935Z,32.03
2017-11-10T03:01:40.470Z,34.33
2017-11-10T03:02:44.744Z,32.70
2017-11-10T03:03:47.255Z,32.72
2017-11-10T03:04:49.823Z,33.75
2017-11-10T03:05:52.329Z,31.10
2017-11-10T03:06:55.774Z,33.63
2017-11-10T03:07:58.262Z,33.28
2017-11-10T03:09:01.732Z,32.25
2017-11-10T03:10:04.219Z,32.90
2017-11-10T03:11:06.781Z,30.92
2017-11-10T03:12:10.802Z,33.80
2017-11-10T03:13:14.246Z,33.42
2017-11-10T03:14:16.749Z,32.08
2017-11-10T03:15:20.227Z,33.42
2017-11-10T03:16:22.740Z,32.88
2017-11-10T03:17:25.570Z,33.70
2017-11-10T03:18:28.846Z,31.52
2017-11-10T03:19:31.525Z,35.35
2017-11-10T03:20:34.033Z,33.60
2017-11-10T03:21:37.797Z,32.92
2017-11-10T03:22:41.085Z,30.58
2017-11-10T03:23:44.642Z,30.05
2017-11-10T03:24:48.652Z,30.85
2017-11-10T03:25:53.367Z,32.45
2017-11-10T03:26:56.637Z,30.85
2017-11-10T03:27:59.334Z,31.42
2017-11-10T03:29:01.813Z,30.70
2017-11-10T03:30:05.280Z,31.65
2017-11-10T03:31:08.166Z,31.42
2017-11-10T03:32:13.680Z,32.83
2017-11-10T03:33:16.161Z,32.45
2017-11-10T03:34:20.543Z,34.55
2017-11-10T03:35:23.021Z,34.40
2017-11-10T03:36:25.575Z,31.90
2017-11-10T03:37:28.064Z,34.80
2017-11-10T03:38:30.604Z,30.95
2017-11-10T03:39:33.089Z,35.33
2017-11-10T03:40:36.573Z,34.10
2017-11-10T03:41:39.098Z,34.13
2017-11-10T03:42:41.899Z,35.17
2017-11-10T03:43:44.383Z,35.13
2017-11-10T03:44:46.910Z,33.60
2017-11-10T03:45:49.416Z,33.45
2017-11-10T03:46:53.487Z,33.40
2017-11-10T03:47:55.966Z,37.28
2017-11-10T03:48:58.533Z,35.90
2017-11-10T03:50:01.018Z,33.88
2017-11-10T03:51:04.471Z,33.08
2017-11-10T03:52:06.972Z,34.15
2017-11-10T03:53:09.513Z,36.78
2017-11-10T03:54:12.150Z,35.75
2017-11-10T03:55:14.853Z,37.33
2017-11-10T03:56:17.338Z,36.53
2017-11-10T03:57:20.794Z,35.33
2017-11-10T03:58:23.266Z,35.17
2017-11-10T03:59:25.824Z,36.25
2017-11-10T04:00:28.312Z,35.30
2017-11-10T04:01:30.865Z,36.33
2017-11-10T04:02:33.353Z,37.95
2017-11-10T04:03:36.806Z,36.03
2017-11-10T04:04:39.281Z,35.42
2017-11-10T04:05:41.822Z,35.75
2017-11-10T04:06:44.356Z,35.15
2017-11-10T04:07:47.785Z,33.85
2017-11-10T04:08:50.271Z,33.95
2017-11-10T04:09:52.828Z,34.95
2017-11-10T04:10:56.259Z,35.72
2017-11-10T04:11:59.736Z,34.72
2017-11-10T04:13:02.985Z,34.95
2017-11-10T04:14:05.673Z,35.38
2017-11-10T04:15:08.144Z,35.05
2017-11-10T04:16:10.695Z,35.80
2017-11-10T04:17:13.177Z,36.30
2017-11-10T04:18:16.657Z,36.42
2017-11-10T04:19:19.155Z,33.97
2017-11-10T04:20:22.592Z,35.78
2017-11-10T04:21:25.085Z,34.88
2017-11-10T04:22:29.478Z,36.22
2017-11-10T04:23:31.959Z,36.35
2017-11-10T04:24:34.502Z,36.20
2017-11-10T04:25:36.997Z,35.80
2017-11-10T04:26:40.446Z,37.35
2017-11-10T04:27:42.926Z,35.08
2017-11-10T04:28:45.495Z,36.90
2017-11-10T04:29:47.962Z,35.75
2017-11-10T04:30:50.562Z,35.10
2017-11-10T04:31:53.799Z,37.22
2017-11-10T04:32:56.460Z,36.05
2017-11-10T04:33:58.945Z,37.17
2017-11-10T04:35:01.494Z,37.05
2017-11-10T04:36:03.996Z,37.40
2017-11-10T04:37:07.449Z,37.30
2017-11-10T04:38:09.933Z,35.97
2017-11-10T04:39:13.417Z,37.80
2017-11-10T04:40:18.343Z,38.78
2017-11-10T04:41:20.928Z,37.70
2017-11-10T04:42:24.175Z,35.53
2017-11-10T04:43:28.097Z,35.58
2017-11-10T04:44:30.616Z,38.22
2017-11-10T04:45:33.407Z,36.40
2017-11-10T04:46:35.906Z,36.67
2017-11-10T04:47:39.352Z,39.38
2017-11-10T04:48:41.833Z,36.50
2017-11-10T04:49:44.391Z,35.58
2017-11-10T04:50:46.858Z,36.70
2017-11-10T04:51:50.633Z,39.42
2017-11-10T04:52:53.113Z,39.33
2017-11-10T04:53:55.700Z,35.83
2017-11-10T04:54:58.190Z,39.38
2017-11-10T04:56:01.641Z,38.55
2017-11-10T04:57:05.278Z,41.42
2017-11-10T04:58:08.859Z,39.05
2017-11-10T04:59:12.117Z,38.38
2017-11-10T05:00:14.770Z,37.15
2017-11-10T05:01:17.255Z,38.03
2017-11-10T05:02:20.409Z,40.12
2017-11-10T05:03:22.901Z,40.08
2017-11-10T05:04:27.388Z,39.72
2017-11-10T05:05:29.864Z,41.75
2017-11-10T05:06:32.638Z,43.55
2017-11-10T05:07:35.122Z,41.95
2017-11-10T05:08:39.230Z,41.83
2017-11-10T05:09:42.497Z,39.70
2017-11-10T05:10:46.707Z,41.47
2017-11-10T05:11:49.204Z,41.37
2017-11-10T05:12:52.637Z,41.50
2017-11-10T05:13:55.152Z,41.97
2017-11-10T05:14:57.679Z,43.20
2017-11-10T05:16:00.207Z,41.97
2017-11-10T05:17:03.034Z,42.40
2017-11-10T05:18:05.548Z,40.47
2017-11-10T05:19:08.379Z,41.37
2017-11-10T05:20:11.710Z,46.55
2017-11-10T05:21:14.353Z,43.03
2017-11-10T05:22:17.630Z,42.30
2017-11-10T05:23:21.177Z,40.97
2017-11-10T05:24:23.665Z,43.72
2017-11-10T05:25:26.205Z,42.45
2017-11-10T05:26:28.709Z,41.22
2017-11-10T05:27:31.253Z,44.95
2017-11-10T05:28:33.757Z,42.25
2017-11-10T05:29:37.197Z,42.03
2017-11-10T05:30:39.685Z,43.90
2017-11-10T05:31:42.255Z,40.70
2017-11-10T05:32:44.782Z,41.88
2017-11-10T05:33:47.561Z,41.72
2017-11-10T05:34:50.149Z,41.55
2017-11-10T05:35:52.889Z,43.17
2017-11-10T05:36:55.481Z,45.45
2017-11-10T05:37:58.896Z,43.92
2017-11-10T05:39:02.157Z,43.28
2017-11-10T05:40:05.434Z,43.25
2017-11-10T05:41:07.934Z,43.38
2017-11-10T05:42:11.440Z,43.17
2017-11-10T05:43:13.926Z,41.37
2017-11-10T05:44:16.722Z,42.05
2017-11-10T05:45:19.212Z,41.97
2017-11-10T05:46:21.766Z,45.67
2017-11-10T05:47:24.237Z,41.55
2017-11-10T05:48:26.811Z,42.35
2017-11-10T05:49:30.070Z,42.40
2017-11-10T05:50:32.723Z,42.40
2017-11-10T05:51:35.230Z,44.15
2017-11-10T05:52:37.758Z,43.13
2017-11-10T05:53:40.267Z,44.35
2017-11-10T05:54:43.715Z,45.42
2017-11-10T05:55:46.198Z,42.55
2017-11-10T05:56:50.298Z,43.45
2017-11-10T05:57:52.810Z,41.47
2017-11-10T05:58:55.363Z,43.87
2017-11-10T05:59:58.612Z,44.05
2017-11-10T06:01:12.814Z,42.78
2017-11-10T06:02:15.308Z,41.47
2017-11-10T06:03:17.981Z,42.88
2017-11-10T06:04:20.577Z,43.75
2017-11-10T06:05:23.928Z,44.30
2017-11-10T06:06:26.438Z,42.50
2017-11-10T06:07:28.992Z,42.10
2017-11-10T06:08:32.251Z,43.72
2017-11-10T06:09:34.919Z,43.38
2017-11-10T06:10:37.395Z,42.97
2017-11-10T06:11:40.858Z,43.38
2017-11-10T06:12:43.349Z,44.50
2017-11-10T06:13:45.941Z,43.08
2017-11-10T06:14:49.206Z,40.63
2017-11-10T06:15:51.847Z,43.20
2017-11-10T06:16:55.254Z,43.33
2017-11-10T06:17:58.506Z,44.45
2017-11-10T06:19:01.011Z,42.70
2017-11-10T06:20:03.778Z,44.42
2017-11-10T06:21:06.327Z,44.25
2017-11-10T06:22:09.106Z,42.00
2017-11-10T06:23:11.599Z,42.33
2017-11-10T06:24:15.075Z,42.03
2017-11-10T06:25:17.551Z,39.42
2017-11-10T06:26:21.026Z,42.78
2017-11-10T06:27:24.016Z,43.72
2017-11-10T06:28:28.326Z,44.22
2017-11-10T06:29:31.589Z,40.63
2017-11-10T06:30:34.161Z,43.78
2017-11-10T06:31:36.646Z,43.22
2017-11-10T06:32:40.114Z,44.10
2017-11-10T06:33:44.506Z,43.20
2017-11-10T06:34:47.273Z,40.92
2017-11-10T06:35:50.217Z,44.47
2017-11-10T06:36:52.903Z,42.78
2017-11-10T06:37:55.429Z,41.58
2017-11-10T06:38:58.906Z,42.67
2017-11-10T06:40:02.200Z,40.15
2017-11-10T06:41:05.747Z,43.20
2017-11-10T06:42:08.225Z,43.30
2017-11-10T06:43:10.789Z,41.72
2017-11-10T06:44:13.321Z,40.33
2017-11-10T06:45:16.124Z,43.30
2017-11-10T06:46:19.489Z,41.03
2017-11-10T06:47:22.082Z,40.75
2017-11-10T06:48:26.062Z,40.90
2017-11-10T06:49:28.663Z,42.85
2017-11-10T06:50:31.130Z,42.90
2017-11-10T06:51:33.645Z,42.70
2017-11-10T06:52:36.119Z,40.12
2017-11-10T06:53:38.709Z,41.28
2017-11-10T06:54:41.282Z,41.72
2017-11-10T06:55:44.060Z,41.10
2017-11-10T06:56:46.556Z,40.83
2017-11-10T06:57:49.051Z,41.50
2017-11-10T06:58:51.550Z,40.05
2017-11-10T06:59:54.094Z,41.20
2017-11-10T07:00:56.576Z,43.47
2017-11-10T07:02:00.057Z,39.80
2017-11-10T07:03:02.549Z,42.75
2017-11-10T07:04:05.090Z,41.83
2017-11-10T07:05:07.586Z,40.55
2017-11-10T07:06:11.058Z,42.78
2017-11-10T07:07:13.558Z,40.55
2017-11-10T07:08:16.086Z,41.53
2017-11-10T07:09:18.585Z,42.13
2017-11-10T07:10:22.345Z,42.03
2017-11-10T07:11:24.850Z,40.80
2017-11-10T07:12:27.386Z,42.50
2017-11-10T07:13:29.869Z,43.28
2017-11-10T07:14:33.325Z,38.70
2017-11-10T07:15:35.862Z,41.35
2017-11-10T07:16:38.648Z,40.97
2017-11-10T07:17:41.701Z,39.08
2017-11-10T07:18:44.303Z,42.90
2017-11-10T07:19:46.811Z,41.28
2017-11-10T07:20:50.278Z,40.97
2017-11-10T07:21:53.520Z,39.47
2017-11-10T07:22:56.226Z,36.83
2017-11-10T07:23:58.741Z,41.10
2017-11-10T07:25:01.268Z,41.13
2017-11-10T07:26:04.501Z,39.63
2017-11-10T07:27:07.181Z,41.55
2017-11-10T07:28:09.671Z,39.08
2017-11-10T07:29:12.234Z,42.75
2017-11-10T07:30:14.888Z,43.03
2017-11-10T07:31:17.560Z,41.65
2017-11-10T07:32:20.090Z,41.20
2017-11-10T07:33:22.595Z,40.33
2017-11-10T07:34:25.080Z,40.38
2017-11-10T07:35:27.649Z,41.70
2017-11-10T07:36:30.966Z,42.70
2017-11-10T07:37:33.556Z,40.75
2017-11-10T07:38:36.061Z,41.30
2017-11-10T07:39:38.598Z,41.33
2017-11-10T07:40:41.102Z,41.90
2017-11-10T07:41:44.557Z,42.33
2017-11-10T07:42:47.037Z,41.45
2017-11-10T07:43:49.581Z,40.72
2017-11-10T07:44:52.085Z,43.47
2017-11-10T07:45:54.645Z,39.75
2017-11-10T07:46:57.143Z,40.17
2017-11-10T07:47:59.637Z,40.10
2017-11-10T07:49:02.163Z,40.80
2017-11-10T07:50:05.788Z,39.75
2017-11-10T07:51:08.273Z,38.80
2017-11-10T07:52:11.881Z,42.72
2017-11-10T07:53:14.358Z,38.70
2017-11-10T07:54:17.595Z,39.45
2017-11-10T07:55:20.077Z,38.92
2017-11-10T07:56:22.867Z,39.58
2017-11-10T07:57:25.416Z,39.22
2017-11-10T07:58:28.184Z,39.35
2017-11-10T07:59:30.672Z,37.97
2017-11-10T08:00:33.206Z,35.42
2017-11-10T08:01:35.689Z,37.45
2017-11-10T08:02:38.273Z,36.75
2017-11-10T08:03:40.758Z,37.33
2017-11-10T08:04:44.005Z,36.80
2017-11-10T08:05:46.556Z,35.65
2017-11-10T08:06:49.086Z,34.63
2017-11-10T08:07:51.628Z,35.30
2017-11-10T08:08:54.878Z,33.58
2017-11-10T08:09:57.537Z,36.10
2017-11-10T08:11:00.026Z,34.55
2017-11-10T08:12:03.525Z,36.83
2017-11-10T08:13:06.080Z,34.72
2017-11-10T08:14:08.846Z,36.63
2017-11-10T08:15:11.330Z,36.17
2017-11-10T08:16:14.050Z,34.92
2017-11-10T08:17:16.672Z,36.08
2017-11-10T08:18:19.221Z,33.65
2017-11-10T08:19:23.211Z,34.08
2017-11-10T08:20:25.881Z,34.28
2017-11-10T08:21:28.381Z,33.35
2017-11-10T08:22:31.760Z,32.15
2017-11-10T08:23:34.394Z,35.38
2017-11-10T08:24:37.761Z,33.63
2017-11-10T08:25:43.204Z,36.15
2017-11-10T08:26:47.170Z,33.67
2017-11-10T08:27:52.364Z,35.70
2017-11-10T08:28:56.423Z,33.75
2017-11-10T08:30:00.879Z,31.00
2017-11-10T08:31:04.553Z,34.00
2017-11-10T08:32:07.101Z,33.20
2017-11-10T08:33:09.854Z,33.13
2017-11-10T08:34:12.484Z,33.50
2017-11-10T08:35:15.124Z,33.63
2017-11-10T08:36:17.616Z,32.47
2017-11-10T08:37:20.149Z,32.60
2017-11-10T08:38:22.691Z,30.92
2017-11-10T08:39:25.217Z,32.85
2017-11-10T08:40:27.692Z,33.15
2017-11-10T08:41:31.174Z,30.52
2017-11-10T08:42:34.478Z,31.83
2017-11-10T08:43:37.088Z,31.15
2017-11-10T08:44:39.594Z,34.22
2017-11-10T08:45:43.047Z,33.53
2017-11-10T08:46:45.564Z,33.85
2017-11-10T08:47:48.083Z,29.35
2017-11-10T08:48:50.594Z,30.00
2017-11-10T08:49:54.057Z,31.17
2017-11-10T08:50:56.542Z,29.08
2017-11-10T08:51:59.977Z,30.42
2017-11-10T08:53:02.469Z,29.90
2017-11-10T08:54:06.190Z,28.92
2017-11-10T08:55:08.736Z,28.60
2017-11-10T08:56:11.308Z,28.77
2017-11-10T08:57:14.607Z,28.08
2017-11-10T08:58:17.860Z,27.20
2017-11-10T08:59:20.404Z,30.33
2017-11-10T09:00:24.103Z,28.55
2017-11-10T09:01:26.593Z,27.75
2017-11-10T09:02:30.139Z,27.73
2017-11-10T09:03:33.207Z,28.67
2017-11-10T09:04:35.739Z,28.10
2017-11-10T09:05:38.993Z,27.45
2017-11-10T09:06:41.651Z,28.15
2017-11-10T09:07:44.149Z,25.48
2017-11-10T09:08:46.722Z,26.62
2017-11-10T09:09:50.108Z,27.25
2017-11-10T09:10:53.557Z,26.87
2017-11-10T09:11:56.604Z,28.23
2017-11-10T09:12:59.277Z,24.45
2017-11-10T09:14:01.751Z,26.15
2017-11-10T09:15:05.062Z,26.65
2017-11-10T09:16:07.546Z,28.50
2017-11-10T09:17:10.200Z,26.58
2017-11-10T09:18:12.683Z,25.98
2017-11-10T09:19:16.077Z,24.80
2017-11-10T09:20:19.454Z,24.10
2017-11-10T09:21:24.591Z,25.05
2017-11-10T09:22:28.688Z,23.60
2017-11-10T09:23:31.930Z,24.67
2017-11-10T09:24:34.402Z,23.67
2017-11-10T09:25:36.896Z,22.65
2017-11-10T09:26:39.441Z,23.80
2017-11-10T09:27:41.942Z,23.67
2017-11-10T09:30:39.484Z,21.10
2017-11-10T09:31:45.796Z,21.62
2017-11-10T09:32:55.177Z,21.55
2017-11-10T09:34:21.789Z,19.67
2017-11-10T09:35:40.054Z,20.90
2017-11-10T09:36:48.936Z,21.55
2017-11-10T09:37:58.228Z,21.77
2017-11-10T09:40:42.123Z,19.30
2017-11-10T09:42:02.647Z,20.70
2017-11-10T09:43:05.164Z,20.95
2017-11-10T09:44:08.755Z,18.60
2017-11-10T09:45:24.976Z,21.75
2017-11-10T09:46:33.154Z,19.90
2017-11-10T09:47:42.069Z,22.15
2017-11-10T09:48:50.130Z,19.12
2017-11-10T09:51:40.399Z,20.60
2017-11-10T09:52:46.765Z,21.20
2017-11-10T09:53:54.895Z,21.35
2017-11-10T09:54:59.359Z,23.25
2017-11-10T09:56:17.184Z,22.73
2017-11-10T09:57:25.645Z,22.05
2017-11-10T09:58:30.862Z,23.62
2017-11-10T09:59:33.602Z,24.40
2017-11-10T10:00:37.042Z,23.55
2017-11-10T10:01:46.544Z,23.50
2017-11-10T10:02:59.932Z,23.85
2017-11-10T10:04:08.183Z,23.87
2017-11-10T10:05:18.269Z,24.08
2017-11-10T10:06:29.704Z,23.85
2017-11-10T10:07:37.989Z,21.98
2017-11-10T10:10:21.829Z,22.83
2017-11-10T10:11:41.330Z,21.92
2017-11-10T10:13:03.375Z,21.95
2017-11-10T10:15:51.162Z,23.38
2017-11-10T10:18:50.246Z,23.20
2017-11-10T10:19:56.693Z,24.08
2017-11-10T10:21:11.085Z,23.42
2017-11-10T10:22:33.542Z,23.60
2017-11-10T10:23:36.040Z,24.08
2017-11-10T10:24:38.517Z,23.02
2017-11-10T10:25:41.698Z,23.98
2017-11-10T10:26:44.396Z,24.00
2017-11-10T10:27:48.641Z,23.10
2017-11-10T10:28:51.542Z,24.48
2017-11-10T10:29:54.057Z,24.08
2017-11-10T10:30:56.700Z,23.23
2017-11-10T10:31:59.945Z,22.70
2017-11-10T10:33:03.596Z,25.08
2017-11-10T10:34:06.955Z,23.17
2017-11-10T10:35:10.461Z,23.00
2017-11-10T10:36:13.789Z,22.92
2017-11-10T10:37:17.217Z,22.80
2017-11-10T10:38:19.733Z,22.62
2017-11-10T10:39:22.360Z,23.48
2017-11-10T10:40:25.605Z,21.35
2017-11-10T10:41:28.275Z,21.40
2017-11-10T10:42:30.760Z,23.42
2017-11-10T10:43:33.325Z,21.95
2017-11-10T10:44:35.823Z,22.80
2017-11-10T10:45:39.261Z,21.98
2017-11-10T10:46:41.740Z,22.33
2017-11-10T10:47:44.280Z,22.20
2017-11-10T10:48:46.789Z,20.83
2017-11-10T10:49:50.581Z,23.17
2017-11-10T10:50:53.073Z,21.70
2017-11-10T10:51:55.696Z,22.77
2017-11-10T10:52:58.203Z,22.25
2017-11-10T10:54:00.926Z,23.45
2017-11-10T10:55:03.435Z,22.73
2017-11-10T10:56:06.071Z,23.87
2017-11-10T10:57:08.578Z,23.27
2017-11-10T10:58:11.389Z,23.52
2017-11-10T10:59:13.911Z,23.87
2017-11-10T11:00:16.730Z,22.00
2017-11-10T11:01:19.480Z,21.15
2017-11-10T11:02:22.094Z,21.60
2017-11-10T11:03:24.654Z,22.70
2017-11-10T11:04:27.445Z,20.83
2017-11-10T11:05:30.783Z,23.80
2017-11-10T11:06:33.428Z,23.08
2017-11-10T11:07:36.207Z,21.60
2017-11-10T11:08:39.981Z,21.85
2017-11-10T11:09:42.486Z,22.02
2017-11-10T11:10:45.334Z,22.95
2017-11-10T11:11:47.856Z,22.40
2017-11-10T11:12:50.629Z,22.10
2017-11-10T11:13:53.117Z,22.95
2017-11-10T11:14:57.558Z,22.90
2017-11-10T11:16:00.096Z,23.20
2017-11-10T11:17:02.885Z,22.45
2017-11-10T11:18:05.386Z,22.20
2017-11-10T11:19:08.161Z,22.90
2017-11-10T11:20:10.650Z,24.17
2017-11-10T11:21:14.057Z,23.67
2017-11-10T11:22:17.314Z,22.80
2017-11-10T11:23:20.142Z,23.60
2017-11-10T11:24:22.664Z,22.92
2017-11-10T11:25:26.357Z,23.52
2017-11-10T11:26:29.630Z,23.95
2017-11-10T11:27:32.291Z,23.30
2017-11-10T11:28:34.822Z,22.45
2017-11-10T11:29:37.540Z,24.75
2017-11-10T11:30:40.042Z,22.90
2017-11-10T11:31:43.513Z,24.83
2017-11-10T11:32:46.023Z,24.08
2017-11-10T11:33:48.563Z,24.08
2017-11-10T11:34:51.828Z,23.33
2017-11-10T11:35:54.474Z,23.73
2017-11-10T11:36:56.996Z,24.52
2017-11-10T11:37:59.498Z,23.62
2017-11-10T11:39:02.018Z,23.15
2017-11-10T11:40:05.543Z,24.45
2017-11-10T11:41:08.024Z,23.60
2017-11-10T11:42:12.315Z,21.65
2017-11-10T11:43:14.819Z,23.30
2017-11-10T11:44:17.367Z,24.60
2017-11-10T11:45:20.408Z,24.35
2017-11-10T11:46:24.041Z,26.12
2017-11-10T11:47:26.557Z,24.33
2017-11-10T11:48:29.268Z,22.87
2017-11-10T11:49:31.761Z,22.42
2017-11-10T11:50:34.329Z,24.87
2017-11-10T11:51:37.599Z,23.17
2017-11-10T11:52:40.300Z,24.67
2017-11-10T11:53:43.592Z,23.08
2017-11-10T11:54:46.224Z,22.92
2017-11-10T11:55:49.535Z,26.20
2017-11-10T11:56:52.842Z,23.98
2017-11-10T11:57:55.339Z,22.13
2017-11-10T11:58:59.051Z,22.52
2017-11-10T12:00:01.559Z,24.23
2017-11-10T12:01:04.093Z,25.75
2017-11-10T12:02:06.602Z,25.17
2017-11-10T12:03:09.132Z,22.77
2017-11-10T12:04:12.389Z,23.77
2017-11-10T12:05:15.167Z,23.52
2017-11-10T12:06:17.706Z,22.42
2017-11-10T12:07:20.199Z,25.52
2017-11-10T12:08:22.689Z,22.92
2017-11-10T12:09:25.335Z,21.92
2017-11-10T12:10:28.842Z,24.00
2017-11-10T12:11:32.102Z,22.27
2017-11-10T12:12:36.317Z,22.85
2017-11-10T12:13:39.590Z,22.77
2017-11-10T12:14:42.257Z,22.70
2017-11-10T12:15:44.749Z,22.95
2017-11-10T12:16:48.197Z,21.23
2017-11-10T12:17:50.723Z,22.15
2017-11-10T12:18:53.565Z,21.83
2017-11-10T12:19:56.062Z,22.17
2017-11-10T12:20:58.913Z,22.65
2017-11-10T12:22:02.199Z,22.13
2017-11-10T12:23:08.032Z,23.10
2017-11-10T12:24:10.510Z,22.20
2017-11-10T12:25:13.926Z,20.30
2017-11-10T12:26:17.679Z,21.17
2017-11-10T12:27:21.001Z,24.20
2017-11-10T12:28:23.597Z,23.10
2017-11-10T12:29:26.133Z,21.95
2017-11-10T12:30:28.741Z,21.67
2017-11-10T12:31:31.266Z,22.70
2017-11-10T12:32:34.246Z,23.55
2017-11-10T12:33:36.747Z,21.02
2017-11-10T12:34:39.516Z,20.75
2017-11-10T12:35:43.338Z,22.50
2017-11-10T12:36:46.002Z,20.85
2017-11-10T12:37:48.505Z,22.42
2017-11-10T12:38:53.232Z,17.95
2017-11-10T12:39:55.757Z,18.70
2017-11-10T12:40:58.501Z,17.23
2017-11-10T12:42:01.033Z,18.12
2017-11-10T12:43:05.117Z,16.77
2017-11-10T12:44:08.584Z,18.42
2017-11-10T12:45:12.015Z,19.02
2017-11-10T12:46:14.514Z,16.85
2017-11-10T12:47:20.061Z,18.40
2017-11-10T12:48:22.734Z,17.33
2017-11-10T12:49:26.462Z,16.70
2017-11-10T12:50:29.532Z,16.20
2017-11-10T12:51:32.903Z,16.50
2017-11-10T12:52:35.570Z,17.15
2017-11-10T12:53:38.246Z,15.52
2017-11-10T12:54:42.063Z,16.83
2017-11-10T12:55:45.328Z,14.77
2017-11-10T12:56:47.872Z,16.00
2017-11-10T12:57:50.688Z,15.05
2017-11-10T12:58:53.985Z,13.73
2017-11-10T12:59:56.837Z,13.40
2017-11-10T13:00:59.366Z,14.00
2017-11-10T13:02:01.944Z,14.98
2017-11-10T13:03:04.429Z,14.48
2017-11-10T13:04:06.994Z,14.80
2017-11-10T13:05:09.530Z,14.95
2017-11-10T13:06:12.033Z,13.90
2017-11-10T13:07:14.554Z,14.35
2017-11-10T13:08:17.090Z,15.02
2017-11-10T13:09:19.595Z,13.93
2017-11-10T13:10:22.263Z,13.98
2017-11-10T13:11:24.768Z,14.23
2017-11-10T13:12:27.437Z,15.15
2017-11-10T13:13:31.737Z,13.77
2017-11-10T13:14:34.347Z,13.27
2017-11-10T13:15:37.470Z,13.32
2017-11-10T13:16:41.181Z,13.30
2017-11-10T13:17:43.698Z,12.13
2017-11-10T13:18:47.478Z,12.02
2017-11-10T13:19:50.329Z,11.18
2017-11-10T13:20:54.682Z,11.98
2017-11-10T13:21:58.114Z,12.07
2017-11-10T13:23:00.631Z,10.85
2017-11-10T13:24:03.188Z,11.10
2017-11-10T13:25:06.081Z,11.12
2017-11-10T13:26:08.648Z,11.07
2017-11-10T13:27:11.978Z,10.85
2017-11-10T13:28:15.484Z,10.40
2017-11-10T13:29:19.007Z,10.10
2017-11-10T13:30:21.786Z,11.63
2017-11-10T13:31:24.318Z,10.75
2017-11-10T13:32:28.005Z,10.18
2017-11-10T13:33:32.530Z,10.40
2017-11-10T13:34:36.244Z,10.40
2017-11-10T13:35:38.852Z,9.70
2017-11-10T13:36:42.690Z,11.30
2017-11-10T13:37:45.246Z,9.52
2017-11-10T13:38:49.754Z,10.30
2017-11-10T13:39:53.039Z,10.32
2017-11-10T13:40:59.760Z,10.10
2017-11-10T13:42:04.052Z,9.93
2017-11-10T13:43:06.709Z,10.90
2017-11-10T13:44:10.049Z,10.18
2017-11-10T13:45:14.372Z,9.57